sensor_id;sensor_type;location;lat;lon;timestamp;pressure;altitude;pressure_sealevel;temperature;humidity
60170;BME280;46042;49.444;6.862;2023-02-11T00:00:26;100667.47;;;-1.10;100.00
60170;BME280;46042;49.444;6.862;2023-02-11T00:02:53;100670.00;;;-1.13;100.00
60170;BME280;46042;49.444;6.862;2023-02-11T00:05:19;100665.69;;;-1.14;100.00
60170;BME280;46042;49.444;6.862;2023-02-11T00:07:46;100673.47;;;-1.11;100.00
60170;BME280;46042;49.444;6.862;2023-02-11T00:10:12;100676.03;;;-1.14;100.00
60170;BME280;46042;49.444;6.862;2023-02-11T00:12:39;100681.22;;;-1.14;100.00
60170;BME280;46042;49.444;6.862;2023-02-11T00:15:06;100672.59;;;-1.13;100.00
60170;BME280;46042;49.444;6.862;2023-02-11T00:17:33;100671.78;;;-1.09;100.00
60170;BME280;46042;49.444;6.862;2023-02-11T00:20:01;100678.69;;;-1.09;100.00
60170;BME280;46042;49.444;6.862;2023-02-11T00:22:28;100679.53;;;-1.09;100.00
60170;BME280;46042;49.444;6.862;2023-02-11T00:24:54;100683.81;;;-1.11;100.00
60170;BME280;46042;49.444;6.862;2023-02-11T00:27:22;100682.06;;;-1.13;100.00
60170;BME280;46042;49.444;6.862;2023-02-11T00:29:49;100677.72;;;-1.15;100.00
60170;BME280;46042;49.444;6.862;2023-02-11T00:32:15;100670.88;;;-1.12;100.00
60170;BME280;46042;49.444;6.862;2023-02-11T00:34:42;100671.75;;;-1.12;100.00
60170;BME280;46042;49.444;6.862;2023-02-11T00:37:08;100659.75;;;-1.08;100.00
60170;BME280;46042;49.444;6.862;2023-02-11T00:39:37;100665.81;;;-1.05;100.00
60170;BME280;46042;49.444;6.862;2023-02-11T00:42:04;100663.28;;;-1.02;100.00
60170;BME280;46042;49.444;6.862;2023-02-11T00:44:30;100667.53;;;-1.04;100.00
60170;BME280;46042;49.444;6.862;2023-02-11T00:46:57;100671.94;;;-0.99;100.00
60170;BME280;46042;49.444;6.862;2023-02-11T00:49:23;100660.69;;;-1.00;100.00
60170;BME280;46042;49.444;6.862;2023-02-11T00:51:50;100661.53;;;-1.03;100.00
60170;BME280;46042;49.444;6.862;2023-02-11T00:54:17;100651.25;;;-0.99;100.00
60170;BME280;46042;49.444;6.862;2023-02-11T00:56:43;100652.13;;;-0.96;100.00
60170;BME280;46042;49.444;6.862;2023-02-11T00:59:10;100659.91;;;-0.94;100.00
60170;BME280;46042;49.444;6.862;2023-02-11T01:01:37;100665.03;;;-0.99;100.00
60170;BME280;46042;49.444;6.862;2023-02-11T01:04:04;100659.91;;;-0.94;100.00
60170;BME280;46042;49.444;6.862;2023-02-11T01:06:30;100659.03;;;-0.95;100.00
60170;BME280;46042;49.444;6.862;2023-02-11T01:08:57;100654.75;;;-0.94;100.00
60170;BME280;46042;49.444;6.862;2023-02-11T01:11:23;100663.41;;;-0.94;100.00
60170;BME280;46042;49.444;6.862;2023-02-11T01:13:50;100661.69;;;-0.92;100.00
60170;BME280;46042;49.444;6.862;2023-02-11T01:16:18;100658.25;;;-0.89;100.00
60170;BME280;46042;49.444;6.862;2023-02-11T01:18:46;100662.59;;;-0.88;100.00
60170;BME280;46042;49.444;6.862;2023-02-11T01:21:12;100662.53;;;-0.91;100.00
60170;BME280;46042;49.444;6.862;2023-02-11T01:23:40;100660.81;;;-0.92;100.00
60170;BME280;46042;49.444;6.862;2023-02-11T01:26:06;100667.66;;;-0.97;100.00
60170;BME280;46042;49.444;6.862;2023-02-11T01:28:33;100672.00;;;-0.93;100.00
60170;BME280;46042;49.444;6.862;2023-02-11T01:31:01;100663.41;;;-0.94;100.00
60170;BME280;46042;49.444;6.862;2023-02-11T01:33:28;100655.63;;;-0.92;100.00
60170;BME280;46042;49.444;6.862;2023-02-11T01:35:59;100648.72;;;-0.93;100.00
60170;BME280;46042;49.444;6.862;2023-02-11T01:38:27;100649.66;;;-0.88;100.00
60170;BME280;46042;49.444;6.862;2023-02-11T01:40:59;100649.72;;;-0.85;100.00
60170;BME280;46042;49.444;6.862;2023-02-11T01:43:35;100648.84;;;-0.84;100.00
60170;BME280;46042;49.444;6.862;2023-02-11T01:48:58;100639.44;;;-0.77;100.00
60170;BME280;46042;49.444;6.862;2023-02-11T01:51:32;100626.53;;;-0.76;100.00
60170;BME280;46042;49.444;6.862;2023-02-11T01:54:01;100620.50;;;-0.75;100.00
60170;BME280;46042;49.444;6.862;2023-02-11T01:56:51;100626.56;;;-0.73;100.00
60170;BME280;46042;49.444;6.862;2023-02-11T02:02:22;100622.16;;;-0.80;100.00
60170;BME280;46042;49.444;6.862;2023-02-11T02:04:54;100616.03;;;-0.87;100.00
60170;BME280;46042;49.444;6.862;2023-02-11T02:07:33;100607.28;;;-0.95;100.00
60170;BME280;46042;49.444;6.862;2023-02-11T02:10:14;100609.97;;;-0.89;100.00
60170;BME280;46042;49.444;6.862;2023-02-11T02:12:42;100598.78;;;-0.86;100.00
60170;BME280;46042;49.444;6.862;2023-02-11T02:15:28;100596.25;;;-0.81;100.00
60170;BME280;46042;49.444;6.862;2023-02-11T02:23:16;100603.16;;;-0.80;100.00
60170;BME280;46042;49.444;6.862;2023-02-11T02:34:17;100604.94;;;-0.78;100.00
60170;BME280;46042;49.444;6.862;2023-02-11T02:37:15;100591.13;;;-0.80;100.00
60170;BME280;46042;49.444;6.862;2023-02-11T02:39:39;100584.19;;;-0.79;100.00
60170;BME280;46042;49.444;6.862;2023-02-11T02:42:06;100585.09;;;-0.79;100.00
60170;BME280;46042;49.444;6.862;2023-02-11T02:44:33;100583.38;;;-0.77;100.00
60170;BME280;46042;49.444;6.862;2023-02-11T02:47:00;100582.53;;;-0.76;100.00
60170;BME280;46042;49.444;6.862;2023-02-11T02:49:27;100579.13;;;-0.73;100.00
60170;BME280;46042;49.444;6.862;2023-02-11T02:54:42;100581.69;;;-0.75;100.00
60170;BME280;46042;49.444;6.862;2023-02-11T03:08:15;100585.16;;;-0.74;100.00
60170;BME280;46042;49.444;6.862;2023-02-11T03:10:46;100582.59;;;-0.71;100.00
60170;BME280;46042;49.444;6.862;2023-02-11T03:13:17;100580.00;;;-0.69;100.00
60170;BME280;46042;49.444;6.862;2023-02-11T03:15:50;100581.78;;;-0.65;100.00
60170;BME280;46042;49.444;6.862;2023-02-11T03:18:21;100580.09;;;-0.62;100.00
60170;BME280;46042;49.444;6.862;2023-02-11T03:20:52;100584.41;;;-0.62;100.00
60170;BME280;46042;49.444;6.862;2023-02-11T03:23:27;100588.75;;;-0.60;100.00
60170;BME280;46042;49.444;6.862;2023-02-11T03:26:50;100579.25;;;-0.59;100.00
60170;BME280;46042;49.444;6.862;2023-02-11T03:32:24;100594.81;;;-0.58;100.00
60170;BME280;46042;49.444;6.862;2023-02-11T03:35:01;100600.88;;;-0.55;100.00
60170;BME280;46042;49.444;6.862;2023-02-11T03:37:36;100605.19;;;-0.56;100.00
60170;BME280;46042;49.444;6.862;2023-02-11T03:40:14;100606.94;;;-0.53;100.00
60170;BME280;46042;49.444;6.862;2023-02-11T03:42:48;100603.53;;;-0.51;100.00
60170;BME280;46042;49.444;6.862;2023-02-11T03:45:19;100595.75;;;-0.49;100.00
60170;BME280;46042;49.444;6.862;2023-02-11T03:47:54;100587.16;;;-0.47;100.00
60170;BME280;46042;49.444;6.862;2023-02-11T03:50:22;100579.41;;;-0.47;100.00
60170;BME280;46042;49.444;6.862;2023-02-11T03:52:50;100570.78;;;-0.44;100.00
60170;BME280;46042;49.444;6.862;2023-02-11T03:55:18;100565.59;;;-0.46;100.00
60170;BME280;46042;49.444;6.862;2023-02-11T03:57:46;100570.78;;;-0.46;100.00
60170;BME280;46042;49.444;6.862;2023-02-11T04:00:14;100568.25;;;-0.41;100.00
60170;BME280;46042;49.444;6.862;2023-02-11T04:02:42;100576.00;;;-0.39;100.00
60170;BME280;46042;49.444;6.862;2023-02-11T04:05:14;100571.72;;;-0.37;100.00
60170;BME280;46042;49.444;6.862;2023-02-11T04:07:41;100565.72;;;-0.35;100.00
60170;BME280;46042;49.444;6.862;2023-02-11T04:10:07;100568.31;;;-0.35;100.00
60170;BME280;46042;49.444;6.862;2023-02-11T04:12:34;100564.84;;;-0.37;100.00
60170;BME280;46042;49.444;6.862;2023-02-11T04:15:00;100566.56;;;-0.36;100.00
60170;BME280;46042;49.444;6.862;2023-02-11T04:17:27;100568.31;;;-0.33;100.00
60170;BME280;46042;49.444;6.862;2023-02-11T04:19:53;100565.75;;;-0.33;100.00
60170;BME280;46042;49.444;6.862;2023-02-11T04:22:20;100557.97;;;-0.33;100.00
60170;BME280;46042;49.444;6.862;2023-02-11T04:24:47;100562.25;;;-0.37;100.00
60170;BME280;46042;49.444;6.862;2023-02-11T04:27:13;100564.81;;;-0.38;100.00
60170;BME280;46042;49.444;6.862;2023-02-11T04:29:40;100569.13;;;-0.37;100.00
60170;BME280;46042;49.444;6.862;2023-02-11T04:32:07;100559.63;;;-0.38;100.00
60170;BME280;46042;49.444;6.862;2023-02-11T04:34:34;100558.75;;;-0.40;100.00
60170;BME280;46042;49.444;6.862;2023-02-11T04:37:01;100557.91;;;-0.41;100.00
60170;BME280;46042;49.444;6.862;2023-02-11T04:39:28;100562.22;;;-0.38;100.00
60170;BME280;46042;49.444;6.862;2023-02-11T04:41:54;100557.91;;;-0.38;100.00
60170;BME280;46042;49.444;6.862;2023-02-11T04:44:21;100557.91;;;-0.36;100.00
60170;BME280;46042;49.444;6.862;2023-02-11T04:46:48;100540.69;;;-0.34;100.00
60170;BME280;46042;49.444;6.862;2023-02-11T04:49:16;100532.06;;;-0.32;100.00
60170;BME280;46042;49.444;6.862;2023-02-11T04:51:43;100532.06;;;-0.33;100.00
60170;BME280;46042;49.444;6.862;2023-02-11T04:54:15;100513.09;;;-0.32;100.00
60170;BME280;46042;49.444;6.862;2023-02-11T04:56:42;100516.53;;;-0.32;100.00
60170;BME280;46042;49.444;6.862;2023-02-11T04:59:08;100511.34;;;-0.33;100.00
60170;BME280;46042;49.444;6.862;2023-02-11T05:01:35;100509.66;;;-0.31;100.00
60170;BME280;46042;49.444;6.862;2023-02-11T05:04:01;100505.28;;;-0.37;100.00
60170;BME280;46042;49.444;6.862;2023-02-11T05:06:28;100500.13;;;-0.34;100.00
60170;BME280;46042;49.444;6.862;2023-02-11T05:08:55;100505.31;;;-0.32;100.00
60170;BME280;46042;49.444;6.862;2023-02-11T05:11:23;100516.56;;;-0.30;100.00
60170;BME280;46042;49.444;6.862;2023-02-11T05:13:51;100529.50;;;-0.30;100.00
60170;BME280;46042;49.444;6.862;2023-02-11T05:16:18;100532.06;;;-0.33;100.00
60170;BME280;46042;49.444;6.862;2023-02-11T05:18:44;100530.34;;;-0.34;100.00
60170;BME280;46042;49.444;6.862;2023-02-11T05:21:14;100523.41;;;-0.34;100.00
60170;BME280;46042;49.444;6.862;2023-02-11T05:23:41;100525.13;;;-0.36;100.00
60170;BME280;46042;49.444;6.862;2023-02-11T05:26:08;100532.03;;;-0.35;100.00
60170;BME280;46042;49.444;6.862;2023-02-11T05:28:35;100532.00;;;-0.41;100.00
60170;BME280;46042;49.444;6.862;2023-02-11T05:31:02;100522.53;;;-0.36;100.00
60170;BME280;46042;49.444;6.862;2023-02-11T05:33:29;100531.22;;;-0.32;100.00
60170;BME280;46042;49.444;6.862;2023-02-11T05:36:01;100525.19;;;-0.26;100.00
60170;BME280;46042;49.444;6.862;2023-02-11T05:38:28;100525.22;;;-0.25;100.00
60170;BME280;46042;49.444;6.862;2023-02-11T05:40:54;100521.78;;;-0.24;100.00
60170;BME280;46042;49.444;6.862;2023-02-11T05:43:21;100526.09;;;-0.23;100.00
60170;BME280;46042;49.444;6.862;2023-02-11T05:45:48;100522.69;;;-0.20;100.00
60170;BME280;46042;49.444;6.862;2023-02-11T05:48:16;100524.38;;;-0.21;100.00
60170;BME280;46042;49.444;6.862;2023-02-11T05:50:43;100522.69;;;-0.20;100.00
60170;BME280;46042;49.444;6.862;2023-02-11T05:53:10;100532.19;;;-0.19;100.00
60170;BME280;46042;49.444;6.862;2023-02-11T05:55:37;100531.31;;;-0.20;100.00
60170;BME280;46042;49.444;6.862;2023-02-11T05:58:05;100532.19;;;-0.18;100.00
60170;BME280;46042;49.444;6.862;2023-02-11T06:00:31;100530.50;;;-0.16;100.00
60170;BME280;46042;49.444;6.862;2023-02-11T06:02:58;100529.66;;;-0.15;100.00
60170;BME280;46042;49.444;6.862;2023-02-11T06:05:25;100531.38;;;-0.12;100.00
60170;BME280;46042;49.444;6.862;2023-02-11T06:07:51;100527.06;;;-0.11;100.00
60170;BME280;46042;49.444;6.862;2023-02-11T06:10:18;100527.06;;;-0.10;100.00
60170;BME280;46042;49.444;6.862;2023-02-11T06:12:45;100528.81;;;-0.09;100.00
60170;BME280;46042;49.444;6.862;2023-02-11T06:15:12;100540.94;;;-0.08;100.00
60170;BME280;46042;49.444;6.862;2023-02-11T06:17:38;100550.41;;;-0.08;100.00
60170;BME280;46042;49.444;6.862;2023-02-11T06:20:06;100550.44;;;-0.07;100.00
60170;BME280;46042;49.444;6.862;2023-02-11T06:22:33;100552.16;;;-0.07;100.00
60170;BME280;46042;49.444;6.862;2023-02-11T06:25:00;100549.53;;;-0.10;100.00
60170;BME280;46042;49.444;6.862;2023-02-11T06:27:28;100540.88;;;-0.12;100.00
60170;BME280;46042;49.444;6.862;2023-02-11T06:29:55;100543.47;;;-0.12;100.00
60170;BME280;46042;49.444;6.862;2023-02-11T06:32:21;100536.56;;;-0.12;100.00
60170;BME280;46042;49.444;6.862;2023-02-11T06:35:08;100534.88;;;-0.07;100.00
60170;BME280;46042;49.444;6.862;2023-02-11T06:37:38;100535.75;;;-0.06;100.00
60170;BME280;46042;49.444;6.862;2023-02-11T06:40:05;100536.63;;;-0.06;100.00
60170;BME280;46042;49.444;6.862;2023-02-11T06:42:32;100535.75;;;-0.06;100.00
60170;BME280;46042;49.444;6.862;2023-02-11T06:44:59;100546.09;;;-0.09;100.00
60170;BME280;46042;49.444;6.862;2023-02-11T06:47:26;100541.78;;;-0.07;100.00
60170;BME280;46042;49.444;6.862;2023-02-11T06:49:53;100539.97;;;-0.19;100.00
60170;BME280;46042;49.444;6.862;2023-02-11T06:52:19;100530.44;;;-0.23;100.00
60170;BME280;46042;49.444;6.862;2023-02-11T06:54:46;100536.47;;;-0.24;100.00
60170;BME280;46042;49.444;6.862;2023-02-11T06:57:12;100530.38;;;-0.26;100.00
60170;BME280;46042;49.444;6.862;2023-02-11T06:59:40;100537.34;;;-0.22;100.00
60170;BME280;46042;49.444;6.862;2023-02-11T07:02:08;100546.00;;;-0.19;100.00
60170;BME280;46042;49.444;6.862;2023-02-11T07:04:35;100548.63;;;-0.16;100.00
60170;BME280;46042;49.444;6.862;2023-02-11T07:07:02;100558.16;;;-0.10;100.00
60170;BME280;46042;49.444;6.862;2023-02-11T07:09:28;100546.09;;;-0.09;100.00
60170;BME280;46042;49.444;6.862;2023-02-11T07:11:55;100558.22;;;-0.07;100.00
60170;BME280;46042;49.444;6.862;2023-02-11T07:14:22;100553.88;;;-0.08;100.00
60170;BME280;46042;49.444;6.862;2023-02-11T07:16:49;100553.03;;;-0.04;100.00
60170;BME280;46042;49.444;6.862;2023-02-11T07:19:15;100556.53;;;0.02;100.00
60170;BME280;46042;49.444;6.862;2023-02-11T07:21:42;100547.94;;;0.04;100.00
60170;BME280;46042;49.444;6.862;2023-02-11T07:24:09;100552.28;;;0.10;100.00
60170;BME280;46042;49.444;6.862;2023-02-11T07:26:36;100551.44;;;0.12;100.00
60170;BME280;46042;49.444;6.862;2023-02-11T07:29:04;100564.41;;;0.16;100.00
60170;BME280;46042;49.444;6.862;2023-02-11T07:31:31;100561.88;;;0.19;100.00
60170;BME280;46042;49.444;6.862;2023-02-11T07:34:00;100557.53;;;0.18;100.00
60170;BME280;46042;49.444;6.862;2023-02-11T07:36:28;100563.59;;;0.20;100.00
60170;BME280;46042;49.444;6.862;2023-02-11T07:38:55;100558.44;;;0.23;100.00
60170;BME280;46042;49.444;6.862;2023-02-11T07:41:23;100560.16;;;0.24;100.00
60170;BME280;46042;49.444;6.862;2023-02-11T07:43:50;100561.03;;;0.26;100.00
60170;BME280;46042;49.444;6.862;2023-02-11T07:46:25;100555.88;;;0.29;100.00
60170;BME280;46042;49.444;6.862;2023-02-11T07:48:53;100563.66;;;0.32;100.00
60170;BME280;46042;49.444;6.862;2023-02-11T07:51:23;100572.28;;;0.25;100.00
60170;BME280;46042;49.444;6.862;2023-02-11T07:53:50;100568.00;;;0.33;100.00
60170;BME280;46042;49.444;6.862;2023-02-11T07:56:19;100569.72;;;0.34;100.00
60170;BME280;46042;49.444;6.862;2023-02-11T07:58:46;100578.41;;;0.36;100.00
60170;BME280;46042;49.444;6.862;2023-02-11T08:01:16;100584.47;;;0.40;100.00
60170;BME280;46042;49.444;6.862;2023-02-11T08:03:44;100585.34;;;0.40;100.00
60170;BME280;46042;49.444;6.862;2023-02-11T08:06:12;100579.31;;;0.43;100.00
60170;BME280;46042;49.444;6.862;2023-02-11T08:08:40;100579.34;;;0.46;100.00
60170;BME280;46042;49.444;6.862;2023-02-11T08:11:13;100586.31;;;0.52;100.00
60170;BME280;46042;49.444;6.862;2023-02-11T08:13:40;100588.03;;;0.56;100.00
60170;BME280;46042;49.444;6.862;2023-02-11T08:16:07;100586.31;;;0.60;100.00
60170;BME280;46042;49.444;6.862;2023-02-11T08:18:35;100591.56;;;0.63;100.00
60170;BME280;46042;49.444;6.862;2023-02-11T08:21:06;100582.09;;;0.69;100.00
60170;BME280;46042;49.444;6.862;2023-02-11T08:23:34;100586.44;;;0.74;100.00
60170;BME280;46042;49.444;6.862;2023-02-11T08:26:02;100582.97;;;0.75;100.00
60170;BME280;46042;49.444;6.862;2023-02-11T08:28:29;100588.19;;;0.79;100.00
60170;BME280;46042;49.444;6.862;2023-02-11T08:30:56;100587.31;;;0.82;100.00
60170;BME280;46042;49.444;6.862;2023-02-11T08:33:23;100593.41;;;0.89;100.00
60170;BME280;46042;49.444;6.862;2023-02-11T08:35:50;100590.88;;;0.96;100.00
60170;BME280;46042;49.444;6.862;2023-02-11T08:38:16;100584.84;;;1.04;100.00
60170;BME280;46042;49.444;6.862;2023-02-11T08:40:43;100592.66;;;1.07;100.00
60170;BME280;46042;49.444;6.862;2023-02-11T08:43:10;100587.44;;;1.08;100.00
60170;BME280;46042;49.444;6.862;2023-02-11T08:45:36;100595.28;;;1.18;100.00
60170;BME280;46042;49.444;6.862;2023-02-11T08:48:03;100600.50;;;1.22;100.00
60170;BME280;46042;49.444;6.862;2023-02-11T08:50:29;100605.72;;;1.28;100.00
60170;BME280;46042;49.444;6.862;2023-02-11T08:52:57;100610.06;;;1.34;100.00
60170;BME280;46042;49.444;6.862;2023-02-11T08:55:24;100611.81;;;1.32;100.00
60170;BME280;46042;49.444;6.862;2023-02-11T08:57:50;100607.47;;;1.36;100.00
60170;BME280;46042;49.444;6.862;2023-02-11T09:00:17;100620.50;;;1.45;100.00
60170;BME280;46042;49.444;6.862;2023-02-11T09:02:44;100621.41;;;1.56;100.00
60170;BME280;46042;49.444;6.862;2023-02-11T09:05:11;100612.75;;;1.64;100.00
60170;BME280;46042;49.444;6.862;2023-02-11T09:07:38;100613.63;;;1.67;100.00
60170;BME280;46042;49.444;6.862;2023-02-11T09:10:05;100615.38;;;1.72;100.00
60170;BME280;46042;49.444;6.862;2023-02-11T09:12:31;100608.47;;;1.75;100.00
60170;BME280;46042;49.444;6.862;2023-02-11T09:14:58;100611.94;;;1.80;100.00
60170;BME280;46042;49.444;6.862;2023-02-11T09:17:25;100614.53;;;1.91;100.00
60170;BME280;46042;49.444;6.862;2023-02-11T09:19:51;100616.28;;;1.95;100.00
60170;BME280;46042;49.444;6.862;2023-02-11T09:22:18;100614.56;;;2.02;100.00
60170;BME280;46042;49.444;6.862;2023-02-11T09:24:44;100611.09;;;2.11;100.00
60170;BME280;46042;49.444;6.862;2023-02-11T09:27:11;100608.50;;;2.16;100.00
60170;BME280;46042;49.444;6.862;2023-02-11T09:29:37;100624.97;;;2.19;100.00
60170;BME280;46042;49.444;6.862;2023-02-11T09:32:04;100619.78;;;2.24;100.00
60170;BME280;46042;49.444;6.862;2023-02-11T09:34:35;100618.03;;;2.24;100.00
60170;BME280;46042;49.444;6.862;2023-02-11T09:37:01;100609.34;;;2.21;100.00
60170;BME280;46042;49.444;6.862;2023-02-11T09:39:28;100611.09;;;2.31;100.00
60170;BME280;46042;49.444;6.862;2023-02-11T09:42:09;100611.09;;;2.39;100.00
60170;BME280;46042;49.444;6.862;2023-02-11T09:44:39;100614.56;;;2.41;100.00
60170;BME280;46042;49.444;6.862;2023-02-11T09:50:01;100613.69;;;2.42;100.00
60170;BME280;46042;49.444;6.862;2023-02-11T09:52:35;100611.94;;;2.55;100.00
60170;BME280;46042;49.444;6.862;2023-02-11T09:55:27;100612.84;;;2.41;100.00
60170;BME280;46042;49.444;6.862;2023-02-11T09:57:51;100611.09;;;2.51;100.00
60170;BME280;46042;49.444;6.862;2023-02-11T10:00:23;100624.09;;;2.53;100.00
60170;BME280;46042;49.444;6.862;2023-02-11T10:11:03;100633.63;;;2.63;100.00
60170;BME280;46042;49.444;6.862;2023-02-11T10:16:45;100631.88;;;2.81;100.00
60170;BME280;46042;49.444;6.862;2023-02-11T10:24:55;100655.25;;;3.03;100.00
60170;BME280;46042;49.444;6.862;2023-02-11T10:27:34;100646.56;;;3.10;100.00
60170;BME280;46042;49.444;6.862;2023-02-11T10:35:21;100648.31;;;3.11;100.00
60170;BME280;46042;49.444;6.862;2023-02-11T10:37:48;100647.38;;;3.17;100.00
60170;BME280;46042;49.444;6.862;2023-02-11T10:40:23;100649.09;;;3.32;100.00
60170;BME280;46042;49.444;6.862;2023-02-11T10:42:53;100646.44;;;3.42;100.00
60170;BME280;46042;49.444;6.862;2023-02-11T10:45:26;100650.78;;;3.44;100.00
60170;BME280;46042;49.444;6.862;2023-02-11T10:47:53;100650.81;;;3.40;100.00
60170;BME280;46042;49.444;6.862;2023-02-11T10:50:26;100647.41;;;3.23;100.00
60170;BME280;46042;49.444;6.862;2023-02-11T10:55:36;100650.78;;;3.44;100.00
60170;BME280;46042;49.444;6.862;2023-02-11T10:58:03;100646.41;;;3.52;100.00
60170;BME280;46042;49.444;6.862;2023-02-11T11:00:38;100637.63;;;3.70;100.00
60170;BME280;46042;49.444;6.862;2023-02-11T11:03:27;100627.94;;;3.94;100.00
60170;BME280;46042;49.444;6.862;2023-02-11T11:05:58;100630.44;;;4.12;100.00
60170;BME280;46042;49.444;6.862;2023-02-11T11:08:45;100623.38;;;4.25;100.00
60170;BME280;46042;49.444;6.862;2023-02-11T11:11:14;100618.97;;;4.31;100.00
60170;BME280;46042;49.444;6.862;2023-02-11T11:16:19;100614.56;;;4.37;100.00
60170;BME280;46042;49.444;6.862;2023-02-11T11:21:47;100618.94;;;4.35;100.00
60170;BME280;46042;49.444;6.862;2023-02-11T11:24:32;100616.28;;;4.40;100.00
60170;BME280;46042;49.444;6.862;2023-02-11T11:27:05;100611.00;;;4.46;99.96
60170;BME280;46042;49.444;6.862;2023-02-11T11:29:58;100627.69;;;4.28;100.00
60170;BME280;46042;49.444;6.862;2023-02-11T11:32:31;100624.28;;;4.18;100.00
60170;BME280;46042;49.444;6.862;2023-02-11T11:35:00;100623.44;;;4.15;100.00
60170;BME280;46042;49.444;6.862;2023-02-11T11:42:39;100619.25;;;3.92;100.00
60170;BME280;46042;49.444;6.862;2023-02-11T11:47:43;100619.38;;;3.75;100.00
60170;BME280;46042;49.444;6.862;2023-02-11T11:58:20;100609.28;;;4.47;100.00
60170;BME280;46042;49.444;6.862;2023-02-11T12:04:09;100604.19;;;4.31;100.00
60170;BME280;46042;49.444;6.862;2023-02-11T12:12:49;100607.75;;;4.19;100.00
60170;BME280;46042;49.444;6.862;2023-02-11T12:23:53;100601.03;;;3.84;100.00
60170;BME280;46042;49.444;6.862;2023-02-11T12:35:17;100606.16;;;4.03;100.00
60170;BME280;46042;49.444;6.862;2023-02-11T12:40:43;100614.78;;;4.11;100.00
60170;BME280;46042;49.444;6.862;2023-02-11T12:43:24;100612.09;;;4.20;100.00
60170;BME280;46042;49.444;6.862;2023-02-11T12:46:14;100611.16;;;4.26;100.00
60170;BME280;46042;49.444;6.862;2023-02-11T12:49:11;100599.91;;;4.22;100.00
60170;BME280;46042;49.444;6.862;2023-02-11T12:54:28;100600.75;;;4.23;100.00
60170;BME280;46042;49.444;6.862;2023-02-11T12:57:27;100591.19;;;4.25;100.00
60170;BME280;46042;49.444;6.862;2023-02-11T13:08:08;100583.28;;;4.33;100.00
60170;BME280;46042;49.444;6.862;2023-02-11T13:10:39;100583.44;;;4.14;100.00
60170;BME280;46042;49.444;6.862;2023-02-11T13:13:17;100587.69;;;4.27;100.00
60170;BME280;46042;49.444;6.862;2023-02-11T13:15:59;100581.50;;;4.41;100.00
60170;BME280;46042;49.444;6.862;2023-02-11T13:18:46;100581.59;;;4.30;100.00
60170;BME280;46042;49.444;6.862;2023-02-11T13:35:29;100563.19;;;4.44;100.00
60170;BME280;46042;49.444;6.862;2023-02-11T13:37:58;100563.06;;;4.55;100.00
60170;BME280;46042;49.444;6.862;2023-02-11T13:40:44;100563.88;;;4.60;100.00
60170;BME280;46042;49.444;6.862;2023-02-11T13:43:20;100557.06;;;4.48;100.00
60170;BME280;46042;49.444;6.862;2023-02-11T13:45:49;100557.97;;;4.46;100.00
60170;BME280;46042;49.444;6.862;2023-02-11T13:48:21;100554.47;;;4.47;100.00
60170;BME280;46042;49.444;6.862;2023-02-11T13:50:50;100550.09;;;4.47;100.00
60170;BME280;46042;49.444;6.862;2023-02-11T13:53:19;100553.47;;;4.57;100.00
60170;BME280;46042;49.444;6.862;2023-02-11T13:55:50;100546.66;;;4.47;100.00
60170;BME280;46042;49.444;6.862;2023-02-11T14:00:52;100553.78;;;4.29;100.00
60170;BME280;46042;49.444;6.862;2023-02-11T14:14:18;100555.44;;;4.36;100.00
60170;BME280;46042;49.444;6.862;2023-02-11T14:27:09;100554.84;;;4.03;100.00
60170;BME280;46042;49.444;6.862;2023-02-11T14:34:55;100532.19;;;4.11;100.00
60170;BME280;46042;49.444;6.862;2023-02-11T14:37:53;100539.06;;;4.20;100.00
60170;BME280;46042;49.444;6.862;2023-02-11T14:40:33;100545.06;;;4.27;100.00
60170;BME280;46042;49.444;6.862;2023-02-11T14:43:11;100543.38;;;4.24;100.00
60170;BME280;46042;49.444;6.862;2023-02-11T14:45:47;100545.06;;;4.30;100.00
60170;BME280;46042;49.444;6.862;2023-02-11T14:48:21;100538.19;;;4.18;100.00
60170;BME280;46042;49.444;6.862;2023-02-11T14:51:12;100553.81;;;4.24;100.00
60170;BME280;46042;49.444;6.862;2023-02-11T14:53:44;100557.31;;;4.20;100.00
60170;BME280;46042;49.444;6.862;2023-02-11T14:56:24;100554.72;;;4.19;100.00
60170;BME280;46042;49.444;6.862;2023-02-11T14:58:53;100556.38;;;4.26;100.00
60170;BME280;46042;49.444;6.862;2023-02-11T15:04:03;100556.34;;;4.32;100.00
60170;BME280;46042;49.444;6.862;2023-02-11T15:06:39;100552.03;;;4.25;100.00
60170;BME280;46042;49.444;6.862;2023-02-11T15:09:36;100557.34;;;4.14;100.00
60170;BME280;46042;49.444;6.862;2023-02-11T15:12:08;100558.25;;;4.13;100.00
60170;BME280;46042;49.444;6.862;2023-02-11T15:14:46;100557.53;;;3.91;100.00
60170;BME280;46042;49.444;6.862;2023-02-11T15:17:16;100556.72;;;3.87;100.00
60170;BME280;46042;49.444;6.862;2023-02-11T15:19:47;100553.19;;;3.94;100.00
60170;BME280;46042;49.444;6.862;2023-02-11T15:22:17;100565.31;;;4.00;100.00
60170;BME280;46042;49.444;6.862;2023-02-11T15:24:57;100552.19;;;4.06;100.00
60170;BME280;46042;49.444;6.862;2023-02-11T15:27:24;100553.91;;;4.10;100.00
60170;BME280;46042;49.444;6.862;2023-02-11T15:29:51;100559.97;;;4.14;100.00
60170;BME280;46042;49.444;6.862;2023-02-11T15:34:49;100567.88;;;4.05;100.00
60170;BME280;46042;49.444;6.862;2023-02-11T15:37:27;100563.50;;;4.05;100.00
60170;BME280;46042;49.444;6.862;2023-02-11T15:40:14;100562.75;;;3.94;100.00
60170;BME280;46042;49.444;6.862;2023-02-11T15:42:52;100567.13;;;3.90;100.00
60170;BME280;46042;49.444;6.862;2023-02-11T15:45:32;100570.50;;;4.02;100.00
60170;BME280;46042;49.444;6.862;2023-02-11T15:48:12;100573.97;;;4.04;100.00
60170;BME280;46042;49.444;6.862;2023-02-11T15:50:41;100562.78;;;3.88;100.00
60170;BME280;46042;49.444;6.862;2023-02-11T15:53:40;100566.28;;;3.87;100.00
60170;BME280;46042;49.444;6.862;2023-02-11T15:56:19;100566.25;;;3.91;100.00